Terminal Aerodrome Forecast
Issued by NWS

Home | Current Version | Previous Version | Text Only | Print | Product List | Glossary On
Versions: 1 2 3 4 5 6 7 8 9 10 11 12 13 14 15 16 17
118
FTUS43 KMPX 141120
TAFRWF
TAF
KRWF 141120Z 1412/1512 08007KT P6SM SCT040 BKN090
     FM141800 07007KT P6SM -SHRA BKN025 BKN040
     FM141900 07008KT 6SM -SHRA BR OVC015
     FM142100 04012KT 3SM -SHRA BR OVC008
     FM150400 34015G28KT 3SM -SHRA BR OVC012
     FM150900 32013G20KT P6SM SCT020 BKN050=

USA.gov is the U.S. government's official web portal to all federal, state and local government web resources and services.